Airfield :
LOGIN :

Register | Disclaimer

   EN    FR    IT 

 










Legend :    VFR   Marginal VFR   IFR   Intensive IFR   Very Intensive IFR
Visi :
Ceiling :
>= 8 km
>= 3000ft
5 to 8 km
1000 to 3000 ft
1500m to 5 km
500 to 1000 ft
800 to 1500m
200 to 500 ft
< 800m
< 200 ft
Symbols :   Thunderstorms  Fog  Heavy snow  Heavy precipitations  Wind > 20 kt
SIGMETs :     Misc.  Thunderstorms  Icing  Turbulence  Mountain Waves  Volcanic Ashes







- Airport Elevation : 465 ft
- IATA code : LEJ


EDDP - Leipzig Halle

CURRENT METAR :
  • 161750Z VRB02KT CAVOK 14/09 Q1019 NOSIG

EXPIRED METARs :
  • 161720Z 00000KT 9999 FEW045 14/10 Q1019 NOSIG
  • 161650Z 26001KT 9999 SCT045 15/10 Q1019 NOSIG
  • 161620Z VRB02KT 9999 SCT040 16/10 Q1019 NOSIG
  • 161550Z 26004KT CAVOK 17/09 Q1018 NOSIG
  • 161520Z 26004KT CAVOK 17/09 Q1018 NOSIG

TAF TAF EDDP
Valid from the 16 at 18:00 until the 17 at 18:00 UTC


161700Z 1618/1718 VRB03KT CAVOK
BECMG 1704/1706 4000 BR
PROB40
TEMPO 1705/1707 1200 BCFG
BECMG 1707/1710 CAVOK
No reported NOTAMs for that airfield.



MET'MAP, your aeronautical weather chart ! - Copyright ORBIFLY December 2007 - Disclaimer

ORBIFLY MET'MAP TEAM :

Programming & Development : Alexandra Zaïnal
Concept & Development : Baudouin d'Aumeries
Co-Development & Prog : Marc-Olivier Méhu
Technical & hardware support : Manuel Goepfert

Contact : metmap@orbifly.com




SOURCES & CREDITS :

   NOAA